createdAt,value
2023-02-02T00:00:16.527Z,9.724828
2023-02-02T00:05:16.735Z,9.576259
2023-02-02T00:10:16.219Z,9.668310
2023-02-02T00:15:17.493Z,9.640714
2023-02-02T00:20:15.546Z,9.730282
2023-02-02T00:25:16.332Z,9.790647
2023-02-02T00:30:16.380Z,10.173944
2023-02-02T00:35:16.189Z,10.333793
2023-02-02T00:40:17.224Z,10.304138
2023-02-02T00:45:16.500Z,10.191156
2023-02-02T00:50:16.246Z,10.069178
2023-02-02T00:55:17.096Z,10.061905
2023-02-02T01:00:17.418Z,9.909459
2023-02-02T01:05:15.929Z,9.722449
2023-02-02T01:10:16.083Z,9.567347
2023-02-02T01:15:17.279Z,9.282877
2023-02-02T01:20:16.446Z,9.263889
2023-02-02T01:25:16.380Z,9.300000
2023-02-02T01:30:17.110Z,9.220139
2023-02-02T01:35:15.740Z,9.173793
2023-02-02T01:40:15.877Z,8.929861
2023-02-02T01:45:16.686Z,8.723129
2023-02-02T01:50:17.100Z,8.663699
2023-02-02T01:55:16.230Z,8.691034
2023-02-02T02:00:18.112Z,8.643151
2023-02-02T02:05:16.250Z,8.452414
2023-02-02T02:10:17.356Z,8.235417
2023-02-02T02:15:18.240Z,7.934722
2023-02-02T02:20:16.517Z,8.255634
2023-02-02T02:25:17.024Z,8.278322
2023-02-02T02:30:17.521Z,7.934028
2023-02-02T02:35:15.878Z,7.866667
2023-02-02T02:40:16.016Z,7.911111
2023-02-02T02:45:16.091Z,7.877397
2023-02-02T02:50:16.041Z,7.783448
2023-02-02T02:55:17.098Z,7.619310
2023-02-02T03:00:16.169Z,7.306164
2023-02-02T03:05:16.331Z,6.956164
2023-02-02T03:10:17.204Z,6.883562
2023-02-02T03:15:16.454Z,6.860274
2023-02-02T03:20:16.562Z,6.938621
2023-02-02T03:25:15.804Z,6.850000
2023-02-02T03:30:16.190Z,6.624828
2023-02-02T03:35:15.549Z,6.077083
2023-02-02T03:40:17.339Z,6.048966
2023-02-02T03:45:16.800Z,6.237931
2023-02-02T03:50:16.552Z,6.139726
2023-02-02T03:55:15.557Z,6.275694
2023-02-02T04:00:16.378Z,6.180000
2023-02-02T04:05:16.814Z,6.378621
2023-02-02T04:10:17.737Z,6.361379
2023-02-02T04:15:16.653Z,6.346897
2023-02-02T04:20:16.219Z,6.379167
2023-02-02T04:25:16.417Z,6.428966
2023-02-02T04:30:16.865Z,6.545517
2023-02-02T04:35:16.407Z,6.524658
2023-02-02T04:40:17.081Z,6.448276
2023-02-02T04:45:17.126Z,6.022069
2023-02-02T04:50:16.368Z,5.886897
2023-02-02T04:55:16.890Z,6.119444
2023-02-02T05:00:17.162Z,6.327273
2023-02-02T05:05:16.529Z,6.304895
2023-02-02T05:10:15.907Z,6.400000
2023-02-02T05:15:16.336Z,6.284828
2023-02-02T05:20:16.758Z,5.779021
2023-02-02T05:25:17.473Z,5.431944
2023-02-02T05:30:16.057Z,5.940972
2023-02-02T05:35:15.606Z,5.994444
2023-02-02T05:40:16.198Z,5.959722
2023-02-02T05:45:21.457Z,5.975862
2023-02-02T05:50:16.180Z,6.066438
2023-02-02T05:55:17.814Z,6.117361
2023-02-02T06:00:16.139Z,6.113103
2023-02-02T06:05:16.855Z,6.256849
2023-02-02T06:10:17.646Z,6.155862
2023-02-02T06:15:16.528Z,5.782639
2023-02-02T06:20:15.887Z,5.575000
2023-02-02T06:25:16.158Z,5.850000
2023-02-02T06:30:16.536Z,5.653793
2023-02-02T06:35:16.741Z,5.632414
2023-02-02T06:40:16.130Z,5.599301
2023-02-02T06:45:16.339Z,5.620833
2023-02-02T06:50:19.574Z,5.766667
2023-02-02T06:55:16.019Z,5.826573
2023-02-02T07:00:19.696Z,5.919444
2023-02-02T07:05:17.329Z,5.634483
2023-02-02T07:11:14.363Z,5.507639
2023-02-02T07:11:22.988Z,5.507639
2023-02-02T07:15:15.925Z,5.747586
2023-02-02T07:20:17.771Z,5.923448
2023-02-02T07:25:16.823Z,5.892361
2023-02-02T07:30:16.076Z,5.790345
2023-02-02T07:35:15.770Z,5.538621
2023-02-02T07:40:16.753Z,5.711111
2023-02-02T07:45:27.409Z,5.622222
2023-02-02T07:50:16.901Z,5.249306
2023-02-02T07:55:17.341Z,5.214789
2023-02-02T08:00:17.032Z,5.422917
2023-02-02T08:05:17.047Z,5.502759
2023-02-02T08:10:15.752Z,5.606944
2023-02-02T08:15:18.014Z,5.626389
2023-02-02T08:20:16.561Z,5.268794
2023-02-02T08:25:17.065Z,5.103448
2023-02-02T08:30:16.356Z,5.003497
2023-02-02T08:35:17.394Z,4.986207
2023-02-02T08:40:16.700Z,5.101379
2023-02-02T08:46:07.791Z,5.072222
2023-02-02T08:50:16.045Z,5.050340
2023-02-02T08:55:16.558Z,4.971622
2023-02-02T09:00:16.212Z,4.891667
2023-02-02T09:05:24.144Z,4.901361
2023-02-02T09:10:17.354Z,4.914286
2023-02-02T09:15:16.652Z,4.919178
2023-02-02T09:20:19.018Z,4.798630
2023-02-02T09:25:16.460Z,4.782759
2023-02-02T09:30:15.776Z,4.853061
2023-02-02T09:35:16.903Z,4.739865
2023-02-02T09:40:17.178Z,4.708163
2023-02-02T09:45:16.724Z,4.745270
2023-02-02T09:50:16.026Z,4.657143
2023-02-02T09:55:16.428Z,4.624490
2023-02-02T10:00:16.582Z,4.671233
2023-02-02T10:05:16.626Z,4.744595
2023-02-02T10:10:17.970Z,4.778231
2023-02-02T10:15:18.449Z,4.747260
2023-02-02T10:20:16.848Z,4.723129
2023-02-02T10:25:17.040Z,4.657143
2023-02-02T10:30:16.546Z,4.561224
2023-02-02T10:35:15.897Z,4.510204
2023-02-02T10:40:16.385Z,4.524138
2023-02-02T10:45:17.017Z,4.542466
2023-02-02T10:50:15.847Z,4.493793
2023-02-02T10:55:16.200Z,4.482192
2023-02-02T11:00:16.304Z,4.489796
2023-02-02T11:05:21.811Z,4.506081
2023-02-02T11:10:21.266Z,4.522449
2023-02-02T11:15:16.333Z,4.497222
2023-02-02T11:20:16.083Z,4.608219
2023-02-02T11:25:18.740Z,4.681081
2023-02-02T11:30:16.006Z,4.731293
2023-02-02T11:35:17.712Z,4.902027
2023-02-02T11:40:21.984Z,4.752414
2023-02-02T11:45:16.541Z,4.624832
2023-02-02T11:50:17.376Z,4.446622
2023-02-02T11:55:17.036Z,4.467785
2023-02-02T12:00:16.712Z,4.400000
2023-02-02T12:05:16.132Z,4.487838
2023-02-02T12:10:16.177Z,4.487755
2023-02-02T12:15:16.285Z,4.441096
2023-02-02T12:20:23.711Z,4.400685
2023-02-02T12:25:16.917Z,4.356250
2023-02-02T12:30:23.881Z,4.406944
2023-02-02T12:35:18.754Z,4.365753
2023-02-02T12:40:16.345Z,4.195862
2023-02-02T12:45:16.328Z,4.244521
2023-02-02T12:50:21.177Z,4.268750
2023-02-02T12:55:16.331Z,4.384028
2023-02-02T13:00:16.428Z,4.551370
2023-02-02T13:05:22.540Z,4.447917
2023-02-02T13:10:16.872Z,4.675342
2023-02-02T13:15:16.583Z,4.426531
2023-02-02T13:20:17.927Z,4.465517
2023-02-02T13:25:16.726Z,4.336111
2023-02-02T13:30:15.903Z,4.487413
2023-02-02T13:35:16.465Z,4.593793
2023-02-02T13:40:18.529Z,4.592466
2023-02-02T13:45:16.565Z,4.595890
2023-02-02T13:50:17.948Z,4.573469
2023-02-02T13:55:17.648Z,4.423448
2023-02-02T14:00:18.536Z,4.381119
2023-02-02T14:05:16.666Z,4.240278
2023-02-02T14:10:16.760Z,4.092466
2023-02-02T14:15:18.255Z,4.058621
2023-02-02T14:20:16.350Z,3.857534
2023-02-02T14:25:16.609Z,3.678082
2023-02-02T14:30:16.997Z,3.672109
2023-02-02T14:35:17.802Z,3.610204
2023-02-02T14:40:16.465Z,3.706081
2023-02-02T14:45:18.120Z,3.898639
2023-02-02T14:50:16.409Z,3.783217
2023-02-02T14:55:16.583Z,3.730986
2023-02-02T15:00:15.555Z,3.883217
2023-02-02T15:05:16.058Z,3.930070
2023-02-02T15:10:16.724Z,3.818182
2023-02-02T15:15:17.190Z,3.815278
2023-02-02T15:20:16.795Z,3.780556
2023-02-02T15:25:18.174Z,3.772662
2023-02-02T15:30:17.111Z,3.780851
2023-02-02T15:35:17.913Z,3.660993
2023-02-02T15:40:16.009Z,3.623077
2023-02-02T15:45:16.616Z,3.569014
2023-02-02T15:50:16.384Z,3.417606
2023-02-02T15:55:16.960Z,3.486111
2023-02-02T16:00:15.990Z,3.666901
2023-02-02T16:05:15.829Z,3.821678
2023-02-02T16:10:15.814Z,3.918182
2023-02-02T16:15:16.590Z,4.044444
2023-02-02T16:20:16.796Z,4.125000
2023-02-02T16:25:16.265Z,4.233333
2023-02-02T16:30:16.463Z,4.499286
2023-02-02T16:35:16.877Z,4.650000
2023-02-02T16:40:15.936Z,4.840000
2023-02-02T16:45:16.835Z,4.999286
2023-02-02T16:50:15.752Z,5.157447
2023-02-02T16:55:17.939Z,5.241844
2023-02-02T17:00:17.116Z,5.339716
2023-02-02T17:05:16.765Z,5.297163
2023-02-02T17:10:15.876Z,5.500704
2023-02-02T17:15:21.405Z,5.629577
2023-02-02T17:20:15.611Z,5.607692
2023-02-02T17:25:16.402Z,5.871127
2023-02-02T17:30:16.276Z,6.276027
2023-02-02T17:35:15.853Z,6.293151
2023-02-02T17:40:16.493Z,6.484932
2023-02-02T17:45:16.648Z,6.844056
2023-02-02T17:50:16.199Z,7.206338
2023-02-02T17:55:16.482Z,7.395035
2023-02-02T18:00:19.665Z,7.700704
2023-02-02T18:05:17.048Z,7.751408
2023-02-02T18:10:15.962Z,7.634507
2023-02-02T18:15:16.817Z,7.766901
2023-02-02T18:20:17.063Z,7.845070
2023-02-02T18:25:17.128Z,8.008451
2023-02-02T18:30:22.834Z,8.057447
2023-02-02T18:35:16.261Z,8.123239
2023-02-02T18:40:21.300Z,8.023404
2023-02-02T18:45:17.059Z,8.095745
2023-02-02T18:50:16.550Z,8.202837
2023-02-02T18:55:16.054Z,7.952857
2023-02-02T19:00:15.971Z,7.750714
2023-02-02T19:05:15.810Z,8.007801
2023-02-02T19:10:16.477Z,8.213043
2023-02-02T19:15:15.573Z,8.480851
2023-02-02T19:20:18.051Z,8.831469
2023-02-02T19:25:16.648Z,9.076923
2023-02-02T19:30:15.658Z,9.047183
2023-02-02T19:35:16.349Z,9.258451
2023-02-02T19:40:16.365Z,9.470423
2023-02-02T19:45:16.257Z,9.524823
2023-02-02T19:50:15.728Z,9.573050
2023-02-02T19:55:17.210Z,9.406429
2023-02-02T20:00:16.074Z,9.475540
2023-02-02T20:05:15.781Z,9.815493
2023-02-02T20:10:16.129Z,10.140278
2023-02-02T20:15:18.475Z,10.230556
2023-02-02T20:20:16.655Z,10.540000
2023-02-02T20:25:15.895Z,10.593197
2023-02-02T20:30:18.862Z,10.644521
2023-02-02T20:35:16.866Z,10.874150
2023-02-02T20:40:16.726Z,10.870548
2023-02-02T20:45:16.815Z,10.670345
2023-02-02T20:50:16.970Z,11.021769
2023-02-02T20:55:17.419Z,10.910884
2023-02-02T21:00:16.267Z,10.792466
2023-02-02T21:05:16.631Z,10.665753
2023-02-02T21:10:16.522Z,10.995238
2023-02-02T21:15:17.177Z,10.832432
2023-02-02T21:20:23.354Z,11.054054
2023-02-02T21:25:17.371Z,11.084459
2023-02-02T21:30:17.168Z,11.016216
2023-02-02T21:35:16.933Z,11.201361
2023-02-02T21:40:16.161Z,10.857931
2023-02-02T21:45:16.088Z,10.940690
2023-02-02T21:50:22.130Z,11.092466
2023-02-02T21:55:16.901Z,10.978231
2023-02-02T22:00:32.412Z,11.270270
2023-02-02T22:05:17.073Z,11.489189
2023-02-02T22:10:16.578Z,11.478523
2023-02-02T22:15:15.944Z,11.503333
2023-02-02T22:20:16.851Z,11.632667
2023-02-02T22:25:16.724Z,11.652703
2023-02-02T22:30:16.409Z,11.263946
2023-02-02T22:35:16.457Z,10.998639
2023-02-02T22:40:16.260Z,11.186897
2023-02-02T22:45:21.263Z,11.327586
2023-02-02T22:50:15.731Z,11.314966
2023-02-02T22:55:17.425Z,11.377551
2023-02-02T23:00:15.785Z,11.442857
2023-02-02T23:05:16.040Z,11.481507
2023-02-02T23:10:17.323Z,11.331724
2023-02-02T23:15:16.516Z,11.404828
2023-02-02T23:20:16.689Z,11.527891
2023-02-02T23:25:15.990Z,11.706803
2023-02-02T23:30:15.967Z,11.656552
2023-02-02T23:35:16.233Z,11.681379
2023-02-02T23:40:16.841Z,11.715172
2023-02-02T23:45:17.299Z,11.638926
2023-02-02T23:50:16.635Z,11.431757
2023-02-02T23:55:16.623Z,11.367568
